Time;durP1;ratioP1;P1;durP2;ratioP2;P2;SDS_P1;SDS_P2;PMS_P1;PMS_P2;Temp;Humidity;BMP_temperature;BMP_pressure;BME280_temperature;BME280_humidity;BME280_pressure;Samples;Min_cycle;Max_cycle;Signal;HPM_P1;HPM_P2
2023/02/17 00:01:11;;;;;;;4.32;3.30;;;16.30;55.30;;;;;;5114613;28;20181;-52
2023/02/17 00:03:37;;;;;;;3.53;3.20;;;16.30;55.30;;;;;;5114239;28;20212;-53
2023/02/17 00:06:07;;;;;;;3.63;3.33;;;16.30;55.30;;;;;;5113992;28;20196;-51
2023/02/17 00:08:32;;;;;;;3.88;3.40;;;16.30;55.30;;;;;;5114449;28;20177;-48
2023/02/17 00:10:58;;;;;;;3.60;3.30;;;16.30;55.30;;;;;;5114652;28;20654;-50
2023/02/17 00:13:23;;;;;;;3.67;3.38;;;16.30;55.40;;;;;;5113777;28;20252;-51
2023/02/17 00:15:49;;;;;;;3.80;3.50;;;16.30;55.40;;;;;;5113967;28;20184;-53
2023/02/17 00:18:14;;;;;;;2.78;2.58;;;16.30;55.30;;;;;;5114297;28;20185;-53
2023/02/17 00:20:40;;;;;;;3.40;3.08;;;16.20;55.30;;;;;;5113586;28;20170;-53
2023/02/17 00:23:05;;;;;;;3.60;3.30;;;16.30;55.30;;;;;;5114156;28;20212;-54
2023/02/17 00:25:31;;;;;;;3.40;3.17;;;16.20;55.30;;;;;;5114267;28;20214;-50
2023/02/17 00:27:56;;;;;;;3.00;2.80;;;16.30;55.40;;;;;;5113362;28;20218;-51
2023/02/17 00:30:22;;;;;;;3.42;3.13;;;16.20;55.30;;;;;;5114035;28;20260;-50
2023/02/17 00:32:47;;;;;;;3.42;3.22;;;16.20;55.90;;;;;;5113534;28;20264;-52
2023/02/17 00:35:13;;;;;;;2.90;2.70;;;16.20;55.30;;;;;;5113052;28;20212;-49
2023/02/17 00:37:39;;;;;;;3.15;2.95;;;16.20;55.30;;;;;;5113508;28;20216;-51
2023/02/17 00:40:05;;;;;;;3.63;3.33;;;16.20;55.30;;;;;;5113386;28;20165;-51
2023/02/17 00:42:31;;;;;;;3.22;2.92;;;16.20;55.30;;;;;;5113725;28;20310;-51
2023/02/17 00:44:56;;;;;;;3.20;3.00;;;16.20;55.40;;;;;;5113767;28;20187;-53
2023/02/17 00:47:22;;;;;;;3.45;3.17;;;16.20;55.30;;;;;;5113093;28;20173;-53
2023/02/17 00:49:47;;;;;;;2.90;2.70;;;16.20;55.30;;;;;;5113655;28;20204;-54
2023/02/17 00:52:13;;;;;;;3.55;3.25;;;16.20;55.40;;;;;;5113756;28;20214;-52
2023/02/17 00:54:39;;;;;;;3.15;2.90;;;16.20;55.40;;;;;;5112703;28;20210;-49
2023/02/17 00:57:05;;;;;;;3.10;2.90;;;16.10;55.30;;;;;;5113838;28;20257;-53
2023/02/17 00:59:30;;;;;;;2.88;2.67;;;16.10;55.30;;;;;;5113622;28;20623;-53
2023/02/17 01:01:56;;;;;;;3.35;3.05;;;16.10;55.30;;;;;;5112399;28;20201;-54
2023/02/17 01:04:21;;;;;;;3.10;2.90;;;16.10;55.30;;;;;;5113596;28;20183;-52
2023/02/17 01:06:47;;;;;;;2.80;2.60;;;16.10;55.30;;;;;;5113351;28;20465;-51
2023/02/17 01:09:13;;;;;;;2.92;2.72;;;16.10;55.30;;;;;;5112886;28;20173;-52
2023/02/17 01:11:39;;;;;;;2.70;2.50;;;16.10;55.30;;;;;;5113343;28;20173;-54
2023/02/17 01:14:05;;;;;;;3.17;2.97;;;16.10;55.30;;;;;;5113696;28;20173;-50
2023/02/17 01:16:34;;;;;;;3.03;2.83;;;16.10;55.30;;;;;;5112571;28;20300;-50
2023/02/17 01:19:00;;;;;;;3.10;2.90;;;16.10;55.30;;;;;;5113614;28;20173;-49
2023/02/17 01:21:27;;;;;;;3.20;2.90;;;16.10;55.40;;;;;;5113517;28;20173;-52
2023/02/17 01:23:54;;;;;;;2.95;2.70;;;16.10;55.40;;;;;;5112536;28;20264;-54
2023/02/17 01:26:21;;;;;;;2.95;2.75;;;16.10;55.40;;;;;;5113288;28;20177;-51
2023/02/17 01:28:47;;;;;;;3.22;2.35;;;16.10;55.40;;;;;;5112920;28;20192;-54
2023/02/17 01:31:13;;;;;;;3.00;2.80;;;16.10;55.40;;;;;;5112581;28;20256;-50
2023/02/17 01:33:38;;;;;;;2.50;2.40;;;16.10;55.40;;;;;;5113165;28;20169;-47
2023/02/17 01:36:06;;;;;;;2.90;2.70;;;16.10;55.30;;;;;;5113457;28;20181;-51
2023/02/17 01:38:31;;;;;;;2.70;2.50;;;16.00;55.30;;;;;;5112558;28;20177;-50
2023/02/17 01:40:57;;;;;;;3.05;2.75;;;16.00;55.30;;;;;;5113219;28;20623;-53
2023/02/17 01:43:23;;;;;;;2.30;2.20;;;16.00;55.30;;;;;;5112545;28;20200;-53
2023/02/17 01:45:58;;;;;;;2.53;2.33;;;16.00;55.30;;;;;;5115669;28;20169;-51
2023/02/17 01:48:37;;;;;;;2.70;2.58;;;16.00;55.30;;;;;;5117897;28;20193;-52
2023/02/17 01:51:17;;;;;;;2.85;2.50;;;16.00;55.30;;;;;;5116711;28;20173;-49
2023/02/17 01:53:55;;;;;;;2.80;2.60;;;16.00;55.30;;;;;;5115784;28;20182;-52
2023/02/17 01:56:21;;;;;;;2.60;2.40;;;16.00;55.30;;;;;;5117424;28;20180;-51
2023/02/17 01:58:49;;;;;;;2.40;2.22;;;16.00;55.30;;;;;;5116237;28;20172;-55
2023/02/17 02:01:15;;;;;;;2.70;2.50;;;16.00;55.30;;;;;;5115925;28;20228;-52
2023/02/17 02:03:40;;;;;;;2.83;2.63;;;16.00;55.40;;;;;;5115575;28;20308;-53
2023/02/17 02:06:09;;;;;;;2.80;2.60;;;16.00;55.40;;;;;;5116278;28;20173;-53
2023/02/17 02:08:41;;;;;;;3.33;3.10;;;16.00;55.40;;;;;;5115466;28;20177;-53
2023/02/17 02:11:07;;;;;;;2.83;2.63;;;16.00;55.40;;;;;;5099196;28;20627;-53
2023/02/17 02:13:32;;;;;;;2.70;2.50;;;16.00;55.40;;;;;;5115744;28;20183;-53
2023/02/17 02:16:27;;;;;;;2.58;2.38;;;16.00;55.40;;;;;;5115537;28;20205;-55
2023/02/17 02:18:56;;;;;;;2.70;2.50;;;16.00;55.40;;;;;;5114458;28;20212;-52
2023/02/17 02:21:51;;;;;;;2.80;2.60;;;16.00;55.40;;;;;;5116582;28;20686;-52
2023/02/17 02:24:52;;;;;;;2.65;2.45;;;16.00;55.40;;;;;;5115709;28;20177;-54
2023/02/17 02:27:39;;;;;;;3.00;2.80;;;16.00;55.40;;;;;;5108881;28;20281;-49
2023/02/17 02:30:23;;;;;;;2.42;2.30;;;16.00;55.50;;;;;;5115516;28;20177;-52
2023/02/17 02:33:11;;;;;;;2.70;2.50;;;15.90;55.40;;;;;;5114408;28;20177;-52
2023/02/17 02:35:51;;;;;;;2.08;1.98;;;15.90;55.40;;;;;;5107656;28;20541;-49
2023/02/17 02:38:22;;;;;;;2.88;2.67;;;15.90;55.40;;;;;;5115336;28;20216;-51
2023/02/17 02:41:18;;;;;;;2.85;2.60;;;15.90;55.40;;;;;;5098010;28;20173;-50
2023/02/17 02:43:44;;;;;;;2.90;2.70;;;15.90;55.40;;;;;;5110695;28;20221;-49
2023/02/17 02:46:09;;;;;;;2.88;2.67;;;15.90;55.40;;;;;;5116017;28;20261;-51
2023/02/17 02:48:35;;;;;;;2.50;2.30;;;15.90;55.50;;;;;;5115362;28;20177;-48
2023/02/17 02:51:12;;;;;;;2.50;2.30;;;15.90;55.50;;;;;;5115331;28;20168;-50
2023/02/17 02:53:47;;;;;;;2.92;2.72;;;15.90;55.50;;;;;;5115164;28;20188;-49
2023/02/17 02:56:32;;;;;;;2.78;2.58;;;15.90;55.50;;;;;;5115192;28;20172;-49
2023/02/17 02:59:25;;;;;;;2.63;2.42;;;15.90;55.50;;;;;;5116164;28;20245;-52
2023/02/17 03:02:16;;;;;;;3.00;2.80;;;15.90;55.40;;;;;;5113811;28;20185;-49
2023/02/17 03:05:03;;;;;;;2.85;2.65;;;15.90;55.50;;;;;;5115617;28;20217;-51
2023/02/17 03:07:31;;;;;;;2.25;2.15;;;15.90;55.50;;;;;;5116041;28;20175;-53
2023/02/17 03:09:57;;;;;;;2.83;2.63;;;15.90;55.50;;;;;;5113901;28;20176;-52
2023/02/17 03:12:22;;;;;;;2.67;2.47;;;15.90;55.50;;;;;;5097752;28;20200;-49
2023/02/17 03:14:49;;;;;;;3.22;2.95;;;15.80;55.40;;;;;;5113364;28;20631;-53
2023/02/17 03:17:14;;;;;;;3.00;2.75;;;15.90;55.50;;;;;;5097269;28;20589;-52
2023/02/17 03:19:40;;;;;;;2.42;2.30;;;15.80;55.40;;;;;;5115191;28;20627;-53
2023/02/17 03:22:08;;;;;;;3.00;2.80;;;15.90;55.50;;;;;;5113598;28;20211;-49
2023/02/17 03:24:33;;;;;;;2.60;2.50;;;15.90;55.50;;;;;;5113992;28;20184;-49
2023/02/17 03:26:59;;;;;;;3.20;3.00;;;15.90;55.50;;;;;;5114279;28;20169;-49
2023/02/17 03:29:24;;;;;;;2.53;2.33;;;15.80;55.40;;;;;;5114800;28;20242;-48
2023/02/17 03:31:50;;;;;;;3.20;2.90;;;15.80;55.40;;;;;;5115198;28;20165;-51
2023/02/17 03:34:15;;;;;;;2.88;2.60;;;15.80;55.40;;;;;;5114307;28;20169;-54
2023/02/17 03:36:41;;;;;;;2.72;2.53;;;15.80;55.40;;;;;;5114420;28;20173;-51
2023/02/17 03:39:06;;;;;;;2.58;2.38;;;15.90;55.50;;;;;;5115319;28;20256;-52
2023/02/17 03:41:32;;;;;;;3.20;2.90;;;15.80;55.40;;;;;;5114922;28;20223;-50
2023/02/17 03:43:57;;;;;;;3.25;2.95;;;15.80;55.40;;;;;;5114294;28;20643;-50
2023/02/17 03:46:23;;;;;;;2.85;2.65;;;15.70;55.40;;;;;;5115021;28;20658;-51
2023/02/17 03:48:48;;;;;;;3.05;2.85;;;15.80;55.40;;;;;;5114862;28;20177;-53
2023/02/17 03:51:20;;;;;;;3.20;3.00;;;15.80;55.40;;;;;;5114473;28;20192;-50
2023/02/17 03:53:45;;;;;;;2.60;2.40;;;15.80;55.40;;;;;;5114662;27;20177;-48
2023/02/17 03:56:11;;;;;;;3.15;2.95;;;15.80;55.40;;;;;;5114971;28;20176;-51
2023/02/17 03:58:37;;;;;;;2.50;2.33;;;15.80;55.40;;;;;;5113661;28;20533;-53
2023/02/17 04:01:03;;;;;;;2.70;2.50;;;15.80;55.50;;;;;;5114783;28;20173;-55
2023/02/17 04:03:29;;;;;;;2.58;2.38;;;15.80;55.40;;;;;;5114775;28;20212;-51
2023/02/17 04:05:54;;;;;;;3.20;2.90;;;15.80;55.40;;;;;;5113782;28;20322;-49
2023/02/17 04:08:20;;;;;;;3.05;2.75;;;15.80;55.50;;;;;;5113713;28;20260;-49
2023/02/17 04:10:51;;;;;;;3.00;2.80;;;15.80;55.50;;;;;;5114288;28;20176;-54
2023/02/17 04:13:16;;;;;;;2.72;2.47;;;15.80;55.50;;;;;;5113800;28;20568;-53
2023/02/17 04:15:42;;;;;;;2.70;2.50;;;15.70;55.40;;;;;;5113784;28;20185;-52
2023/02/17 04:18:07;;;;;;;2.67;2.47;;;15.70;55.40;;;;;;5113598;28;20177;-51
2023/02/17 04:20:33;;;;;;;2.88;2.67;;;15.70;55.50;;;;;;5114215;28;20173;-53
2023/02/17 04:22:58;;;;;;;2.75;2.55;;;15.70;55.50;;;;;;5114198;28;20204;-49
2023/02/17 04:25:24;;;;;;;2.63;2.42;;;15.80;55.50;;;;;;5113594;28;20176;-49
2023/02/17 04:27:49;;;;;;;2.42;2.22;;;15.70;55.50;;;;;;5113925;28;20180;-50
2023/02/17 04:30:15;;;;;;;2.63;2.42;;;15.70;55.40;;;;;;5114110;28;20165;-51
2023/02/17 04:32:41;;;;;;;2.42;2.22;;;15.80;55.50;;;;;;5113309;28;20173;-51
2023/02/17 04:35:06;;;;;;;2.90;2.70;;;15.70;55.40;;;;;;5114143;28;20192;-53
2023/02/17 04:37:32;;;;;;;3.40;3.10;;;15.70;55.40;;;;;;5113941;28;20174;-52
2023/02/17 04:39:57;;;;;;;2.30;2.20;;;15.70;55.40;;;;;;5113378;28;20165;-48
2023/02/17 04:42:23;;;;;;;2.50;2.30;;;15.70;55.50;;;;;;5113961;28;20205;-51
2023/02/17 04:44:48;;;;;;;3.03;2.67;;;15.70;55.50;;;;;;5113595;28;20161;-49
2023/02/17 04:47:14;;;;;;;2.53;2.33;;;15.70;55.50;;;;;;5113349;28;20173;-50
2023/02/17 04:49:39;;;;;;;2.67;2.47;;;15.70;55.50;;;;;;5113601;28;20173;-48
2023/02/17 04:52:05;;;;;;;2.40;2.20;;;15.70;55.40;;;;;;5113923;28;20268;-48
2023/02/17 04:54:30;;;;;;;2.67;2.47;;;15.70;55.50;;;;;;5113055;28;20264;-49
2023/02/17 04:56:56;;;;;;;2.67;2.47;;;15.70;55.50;;;;;;5113416;28;20173;-54
2023/02/17 04:59:22;;;;;;;2.70;2.50;;;15.70;55.50;;;;;;5113628;28;20184;-50
2023/02/17 05:01:47;;;;;;;2.30;2.10;;;15.70;55.50;;;;;;5112728;28;20172;-51
2023/02/17 05:04:13;;;;;;;2.30;2.20;;;15.70;55.50;;;;;;5113868;28;20184;-53
2023/02/17 05:06:38;;;;;;;2.72;2.53;;;15.70;55.50;;;;;;5113614;28;20169;-53
2023/02/17 05:09:04;;;;;;;2.40;2.28;;;15.70;55.50;;;;;;5112977;28;20176;-53
2023/02/17 05:11:30;;;;;;;2.60;2.40;;;15.70;55.50;;;;;;5113539;28;20181;-53
2023/02/17 05:13:56;;;;;;;2.88;2.67;;;15.70;55.50;;;;;;5113083;28;20193;-48
2023/02/17 05:16:21;;;;;;;2.78;2.58;;;15.70;55.60;;;;;;5112429;28;20224;-50
2023/02/17 05:18:47;;;;;;;3.08;2.75;;;15.70;55.60;;;;;;5113326;28;20173;-48
2023/02/17 05:21:12;;;;;;;2.50;2.30;;;15.70;55.60;;;;;;5113020;28;20667;-51
2023/02/17 05:23:40;;;;;;;2.70;2.50;;;15.70;56.20;;;;;;5112168;28;20237;-53
2023/02/17 05:26:07;;;;;;;2.67;2.47;;;15.70;56.20;;;;;;5113392;28;20208;-48
2023/02/17 05:28:33;;;;;;;2.90;2.70;;;15.60;55.50;;;;;;5112429;28;20189;-52
2023/02/17 05:30:59;;;;;;;2.55;2.35;;;15.70;55.60;;;;;;5113206;28;20541;-50
2023/02/17 05:33:25;;;;;;;2.85;2.60;;;15.70;55.60;;;;;;5113326;28;20176;-49
2023/02/17 05:35:50;;;;;;;3.08;2.83;;;15.60;55.60;;;;;;5112397;28;20249;-52
2023/02/17 05:38:16;;;;;;;2.95;2.75;;;15.60;55.60;;;;;;5113288;28;20598;-54
2023/02/17 05:40:41;;;;;;;2.72;2.53;;;15.60;55.60;;;;;;5112941;28;20253;-54
2023/02/17 05:43:07;;;;;;;2.90;2.70;;;15.60;55.50;;;;;;5112418;28;20246;-54
2023/02/17 05:45:32;;;;;;;2.65;2.40;;;15.60;55.50;;;;;;5112933;28;20688;-53
2023/02/17 05:47:58;;;;;;;3.30;3.00;;;15.70;55.60;;;;;;5113139;28;20639;-53
2023/02/17 05:50:23;;;;;;;2.70;2.50;;;15.70;55.60;;;;;;5112361;28;20639;-53
2023/02/17 05:52:49;;;;;;;2.97;2.45;;;15.60;55.60;;;;;;5112559;28;20265;-51
2023/02/17 05:55:15;;;;;;;2.72;2.53;;;15.70;55.60;;;;;;5112771;28;20335;-52
2023/02/17 05:57:40;;;;;;;3.13;2.92;;;15.60;55.60;;;;;;5111881;28;20260;-54
2023/02/17 06:00:06;;;;;;;2.58;2.38;;;15.70;55.70;;;;;;5113140;28;20174;-52
2023/02/17 06:02:32;;;;;;;2.47;2.28;;;15.60;55.60;;;;;;5112442;28;20204;-52
2023/02/17 06:04:57;;;;;;;3.10;2.75;;;15.60;55.60;;;;;;5112084;28;20176;-54
2023/02/17 06:07:23;;;;;;;2.92;2.72;;;15.60;55.70;;;;;;5113007;28;20181;-50
2023/02/17 06:09:48;;;;;;;2.53;2.33;;;15.60;55.70;;;;;;5112740;28;20166;-50
2023/02/17 06:12:14;;;;;;;2.85;2.65;;;15.60;55.70;;;;;;5112450;28;20210;-51
2023/02/17 06:14:39;;;;;;;3.22;2.92;;;15.60;55.70;;;;;;5112743;28;20166;-51
2023/02/17 06:17:05;;;;;;;2.80;2.60;;;15.60;55.70;;;;;;5112625;28;20233;-50
2023/02/17 06:19:30;;;;;;;3.00;2.70;;;15.60;55.60;;;;;;5111850;28;20651;-49
2023/02/17 06:21:56;;;;;;;3.20;2.90;;;15.60;55.70;;;;;;5112421;28;20189;-49
2023/02/17 06:24:23;;;;;;;2.88;2.67;;;15.50;55.70;;;;;;5112827;28;20193;-47
2023/02/17 06:26:48;;;;;;;2.72;2.53;;;15.60;55.70;;;;;;5111864;28;20184;-48
2023/02/17 06:29:14;;;;;;;2.88;2.67;;;15.60;55.70;;;;;;5112842;28;20256;-49
2023/02/17 06:31:39;;;;;;;3.05;2.85;;;15.60;55.80;;;;;;5112396;28;20251;-49
2023/02/17 06:34:05;;;;;;;2.92;2.72;;;15.60;55.70;;;;;;5116405;28;20215;-49
2023/02/17 06:36:30;;;;;;;3.50;3.15;;;15.50;55.70;;;;;;5116502;28;20214;-50
2023/02/17 06:38:56;;;;;;;2.30;2.20;;;15.60;55.80;;;;;;5115280;28;20173;-52
2023/02/17 06:41:21;;;;;;;3.67;2.67;;;15.50;55.70;;;;;;5116102;28;20177;-48
2023/02/17 06:43:47;;;;;;;2.67;2.47;;;15.50;55.70;;;;;;5115689;28;20288;-49
2023/02/17 06:46:12;;;;;;;3.35;3.15;;;15.60;55.70;;;;;;5115273;28;20177;-50
2023/02/17 06:48:38;;;;;;;3.28;2.75;;;15.50;55.80;;;;;;5115914;28;20173;-48
2023/02/17 06:51:04;;;;;;;3.03;2.83;;;15.60;55.80;;;;;;5116142;28;20635;-50
2023/02/17 06:53:29;;;;;;;3.25;3.05;;;15.50;55.90;;;;;;5115389;28;20757;-49
2023/02/17 06:55:55;;;;;;;2.90;2.70;;;15.50;55.80;;;;;;5115761;28;20178;-50
2023/02/17 06:58:20;;;;;;;2.80;2.60;;;15.50;55.70;;;;;;5115966;28;20169;-52
2023/02/17 07:00:46;;;;;;;3.05;2.85;;;15.50;55.70;;;;;;5114933;28;20254;-52
2023/02/17 07:03:11;;;;;;;3.03;2.83;;;15.50;55.80;;;;;;5115834;28;20208;-52
2023/02/17 07:05:38;;;;;;;2.65;2.45;;;15.60;56.00;;;;;;5115414;28;20246;-52
2023/02/17 07:08:04;;;;;;;3.38;3.15;;;15.70;56.00;;;;;;5114910;28;20643;-51
2023/02/17 07:10:30;;;;;;;2.90;2.60;;;15.80;55.80;;;;;;5115391;28;20271;-48
2023/02/17 07:12:55;;;;;;;2.40;2.20;;;16.00;55.80;;;;;;5115297;28;20181;-52
2023/02/17 07:15:21;;;;;;;2.53;2.33;;;16.20;55.70;;;;;;5114963;28;20276;-50
2023/02/17 07:17:46;;;;;;;1.92;1.83;;;16.30;55.60;;;;;;5114899;28;20303;-52
2023/02/17 07:20:12;;;;;;;2.33;2.13;;;16.50;55.30;;;;;;5115494;28;20169;-49
2023/02/17 07:22:37;;;;;;;2.10;1.90;;;16.70;55.00;;;;;;5114365;28;20197;-52
2023/02/17 07:25:04;;;;;;;1.80;1.70;;;17.00;54.50;;;;;;5115132;28;20631;-50
2023/02/17 07:27:30;;;;;;;2.10;1.98;;;17.30;53.90;;;;;;5115113;28;20184;-49
2023/02/17 07:29:56;;;;;;;2.05;1.92;;;17.40;53.50;;;;;;5114270;28;20180;-49
2023/02/17 07:32:21;;;;;;;1.80;1.70;;;17.60;53.30;;;;;;5115258;28;20597;-50
2023/02/17 07:34:47;;;;;;;2.00;1.90;;;17.70;53.00;;;;;;5114907;28;20177;-51
2023/02/17 07:37:12;;;;;;;1.85;1.75;;;17.70;52.90;;;;;;5114577;28;20181;-51
2023/02/17 07:39:38;;;;;;;2.03;1.83;;;17.60;53.00;;;;;;5114782;28;20511;-51
2023/02/17 07:42:05;;;;;;;2.00;1.90;;;17.70;53.00;;;;;;5114144;28;20651;-51
2023/02/17 07:44:30;;;;;;;1.70;1.60;;;17.70;53.00;;;;;;5114708;28;20611;-48
2023/02/17 07:46:56;;;;;;;2.05;1.95;;;17.70;53.00;;;;;;5114741;28;20203;-50
2023/02/17 07:49:21;;;;;;;3.05;1.85;;;17.70;52.90;;;;;;5114214;28;20173;-52
2023/02/17 07:51:47;;;;;;;1.88;1.70;;;17.70;52.90;;;;;;5114623;28;20313;-61
2023/02/17 07:54:13;;;;;;;1.70;1.60;;;17.70;53.10;;;;;;5114472;28;20313;-62
2023/02/17 07:56:38;;;;;;;1.83;1.73;;;17.80;53.10;;;;;;5113383;28;20650;-59
2023/02/17 07:59:07;;;;;;;1.77;1.67;;;17.70;53.30;;;;;;5114547;28;20663;-60
2023/02/17 08:01:33;;;;;;;2.95;2.00;;;17.80;53.50;;;;;;5113892;28;20639;-60
2023/02/17 08:03:58;;;;;;;1.92;1.83;;;17.70;53.50;;;;;;5113527;28;20220;-63
2023/02/17 08:06:24;;;;;;;2.72;2.03;;;17.70;53.70;;;;;;5114401;28;20169;-62
2023/02/17 08:14:20;;;;;;;2.55;1.95;;;17.40;55.10;;;;;;5114243;28;20234;-63
2023/02/17 08:16:45;;;;;;;2.45;2.25;;;17.40;55.50;;;;;;5113716;28;20252;-61
2023/02/17 08:19:11;;;;;;;2.42;2.00;;;17.40;55.80;;;;;;5113559;28;20278;-62
2023/02/17 08:21:36;;;;;;;5.07;2.33;;;17.50;55.80;;;;;;5113958;28;20226;-62
2023/02/17 08:24:02;;;;;;;2.42;1.90;;;17.50;55.80;;;;;;5113951;28;20651;-61
2023/02/17 08:26:28;;;;;;;2.47;2.00;;;17.50;55.90;;;;;;5113134;28;20173;-62
2023/02/17 08:28:54;;;;;;;2.17;1.98;;;17.50;55.70;;;;;;5113721;28;20264;-63
2023/02/17 08:31:20;;;;;;;2.13;2.00;;;17.50;56.00;;;;;;5113212;28;20169;-63
2023/02/17 08:33:46;;;;;;;2.38;2.03;;;17.50;56.00;;;;;;5113558;28;20643;-64
2023/02/17 08:36:12;;;;;;;2.50;2.20;;;17.60;56.00;;;;;;5113916;28;20187;-63
2023/02/17 08:38:38;;;;;;;2.38;2.17;;;17.60;55.90;;;;;;5113060;28;20170;-62
2023/02/17 08:41:12;;;;;;;3.47;2.08;;;17.60;56.00;;;;;;5114043;28;20196;-62
2023/02/17 08:43:37;;;;;;;2.33;2.10;;;17.60;56.10;;;;;;5113685;28;20292;-62
2023/02/17 08:46:06;;;;;;;2.35;2.15;;;17.50;56.00;;;;;;5113298;28;20260;-62
2023/02/17 08:48:32;;;;;;;3.35;2.58;;;17.40;56.10;;;;;;5113403;28;20582;-63
2023/02/17 08:50:57;;;;;;;3.45;2.60;;;17.40;56.40;;;;;;5113734;28;20207;-64
2023/02/17 08:53:23;;;;;;;3.13;2.40;;;17.30;56.60;;;;;;5113059;28;20173;-65
2023/02/17 08:55:49;;;;;;;4.20;2.50;;;17.30;56.70;;;;;;5112861;28;20169;-65
2023/02/17 08:58:14;;;;;;;2.80;2.20;;;17.30;56.60;;;;;;5113499;28;20226;-65
2023/02/17 09:00:40;;;;;;;3.90;2.30;;;17.30;56.60;;;;;;5112515;28;20169;-66
2023/02/17 09:03:06;;;;;;;3.72;2.47;;;17.30;56.70;;;;;;5113056;28;20291;-63
2023/02/17 09:05:34;;;;;;;1.83;1.73;;;17.40;56.70;;;;;;5112572;28;20654;-64
2023/02/17 09:07:59;;;;;;;2.25;2.15;;;17.40;56.50;;;;;;5112251;28;20169;-63
2023/02/17 09:10:25;;;;;;;2.75;1.92;;;17.50;56.50;;;;;;5113119;28;20257;-64
2023/02/17 09:12:51;;;;;;;2.22;2.00;;;17.50;56.50;;;;;;5112699;28;20169;-65
2023/02/17 09:15:16;;;;;;;3.15;2.08;;;17.40;57.10;;;;;;5112080;28;20255;-64
2023/02/17 09:17:42;;;;;;;3.30;2.33;;;17.40;56.60;;;;;;5112634;28;20262;-66
2023/02/17 09:20:08;;;;;;;2.88;2.17;;;17.30;56.60;;;;;;5113568;28;20623;-64
2023/02/17 09:22:34;;;;;;;2.22;2.03;;;17.30;56.70;;;;;;5112176;28;20675;-60
2023/02/17 09:24:59;;;;;;;2.17;1.80;;;17.20;56.70;;;;;;5113244;28;20180;-59
2023/02/17 09:27:25;;;;;;;2.25;1.77;;;17.20;56.80;;;;;;5113211;28;20230;-60
2023/02/17 09:29:50;;;;;;;2.75;1.73;;;17.20;56.90;;;;;;5112346;28;20215;-60
2023/02/17 09:32:16;;;;;;;2.50;1.95;;;17.30;56.90;;;;;;5112820;28;20201;-60
2023/02/17 09:34:48;;;;;;;2.78;1.85;;;17.40;56.80;;;;;;5112250;28;20587;-60
2023/02/17 09:37:16;;;;;;;2.05;1.70;;;17.50;56.60;;;;;;5113388;28;20177;-60
2023/02/17 09:39:42;;;;;;;1.80;1.67;;;17.70;56.40;;;;;;5112424;28;20573;-60
2023/02/17 09:42:17;;;;;;;1.92;1.80;;;17.90;56.00;;;;;;5112351;28;20254;-60
2023/02/17 09:44:43;;;;;;;3.00;1.75;;;18.20;55.60;;;;;;5111557;28;20181;-60
2023/02/17 09:47:37;;;;;;;3.42;1.48;;;18.30;55.20;;;;;;5111938;28;20176;-59
2023/02/17 09:50:06;;;;;;;1.50;1.40;;;18.50;54.90;;;;;;5109510;28;20185;-59
2023/02/17 09:52:55;;;;;;;1.67;1.20;;;18.70;54.50;;;;;;5112731;28;20628;-59
2023/02/17 09:55:35;;;;;;;4.25;1.60;;;18.90;54.10;;;;;;5112801;28;20241;-60
2023/02/17 09:58:15;;;;;;;3.85;1.13;;;19.00;54.00;;;;;;5111522;28;20199;-60
2023/02/17 10:00:42;;;;;;;2.35;1.40;;;19.00;53.80;;;;;;5111050;28;20539;-59
2023/02/17 10:03:11;;;;;;;1.52;1.42;;;19.00;53.70;;;;;;5110951;28;20232;-59
2023/02/17 10:05:44;;;;;;;4.03;1.40;;;19.00;53.70;;;;;;5110912;28;20191;-60
2023/02/17 10:08:18;;;;;;;2.53;1.42;;;19.00;53.80;;;;;;5114452;28;20209;-59
2023/02/17 10:10:48;;;;;;;1.67;1.52;;;19.00;53.70;;;;;;5113883;28;20175;-60
2023/02/17 10:13:14;;;;;;;1.77;1.48;;;19.00;53.70;;;;;;5115141;28;20260;-60
2023/02/17 10:15:42;;;;;;;1.33;1.23;;;19.00;53.70;;;;;;5114566;28;20177;-60
2023/02/17 10:18:16;;;;;;;1.80;1.67;;;19.00;53.80;;;;;;5114230;28;20614;-60
2023/02/17 10:20:49;;;;;;;1.73;1.50;;;19.00;53.80;;;;;;5114585;28;20691;-60
2023/02/17 10:23:21;;;;;;;1.88;1.15;;;19.00;53.90;;;;;;5114701;28;20204;-60
2023/02/17 10:26:18;;;;;;;1.33;1.10;;;19.00;53.90;;;;;;5114838;28;20324;-60
2023/02/17 10:28:53;;;;;;;1.83;1.17;;;18.90;53.90;;;;;;5113989;28;20230;-60
2023/02/17 10:32:01;;;;;;;1.60;1.50;;;18.90;54.10;;;;;;5114683;28;20176;-60
2023/02/17 10:34:37;;;;;;;1.80;1.20;;;18.90;54.00;;;;;;5109163;28;20219;-60
2023/02/17 10:37:10;;;;;;;1.35;1.20;;;18.90;54.00;;;;;;5114071;28;20532;-60
2023/02/17 10:39:47;;;;;;;1.02;1.02;;;18.80;54.20;;;;;;5113364;28;20181;-59
2023/02/17 10:42:19;;;;;;;1.92;1.20;;;18.70;54.10;;;;;;5114295;28;20480;-59
2023/02/17 10:44:44;;;;;;;1.10;1.00;;;18.70;55.00;;;;;;5115222;28;20200;-59
2023/02/17 10:47:10;;;;;;;1.42;1.33;;;18.60;54.40;;;;;;5114437;28;20205;-59
2023/02/17 10:49:41;;;;;;;0.88;0.88;;;18.50;54.60;;;;;;5114557;28;20174;-59
2023/02/17 10:52:17;;;;;;;1.35;1.08;;;18.50;54.70;;;;;;5114614;28;20173;-59
2023/02/17 10:55:24;;;;;;;2.53;1.30;;;18.50;54.90;;;;;;5113664;28;20183;-62
2023/02/17 10:57:56;;;;;;;1.45;1.35;;;18.40;54.90;;;;;;5098326;28;20181;-65
2023/02/17 11:00:22;;;;;;;1.33;1.23;;;18.40;54.90;;;;;;5121767;27;20177;-64
2023/02/17 11:02:51;;;;;;;1.92;1.20;;;18.40;54.90;;;;;;5118339;27;20206;-63
2023/02/17 11:05:22;;;;;;;1.30;1.20;;;18.40;54.90;;;;;;5135580;27;20172;-64
2023/02/17 11:07:47;;;;;;;1.10;1.00;;;18.50;55.00;;;;;;5124516;27;20189;-63
2023/02/17 11:10:27;;;;;;;1.60;1.20;;;18.40;54.90;;;;;;5113366;28;20179;-62
2023/02/17 11:12:54;;;;;;;1.38;1.20;;;18.40;54.90;;;;;;5113548;28;20169;-63
2023/02/17 11:15:22;;;;;;;1.30;1.20;;;18.50;55.60;;;;;;5097712;27;20188;-62
2023/02/17 11:17:48;;;;;;;1.70;1.30;;;18.50;54.90;;;;;;5133025;27;20220;-63
2023/02/17 11:20:13;;;;;;;1.30;1.20;;;18.50;54.80;;;;;;5133286;27;20179;-63
2023/02/17 11:22:44;;;;;;;4.00;1.27;;;18.50;54.80;;;;;;5123442;27;20201;-63
2023/02/17 11:25:30;;;;;;;1.38;1.27;;;18.50;54.80;;;;;;5114511;28;20531;-63
2023/02/17 11:28:00;;;;;;;1.33;1.23;;;18.60;54.60;;;;;;5113681;28;20295;-63
2023/02/17 11:30:27;;;;;;;0.95;0.95;;;18.60;54.70;;;;;;5114374;28;20222;-63
2023/02/17 11:32:54;;;;;;;1.55;1.20;;;18.60;54.60;;;;;;5119915;27;20184;-64
2023/02/17 11:35:23;;;;;;;1.30;1.20;;;18.60;54.70;;;;;;5134439;27;20176;-63
2023/02/17 11:37:48;;;;;;;1.40;1.30;;;18.60;54.60;;;;;;5133562;27;20205;-63
2023/02/17 11:40:23;;;;;;;1.00;1.00;;;18.70;54.60;;;;;;5134835;27;20638;-63
2023/02/17 11:42:58;;;;;;;1.13;1.00;;;18.60;54.60;;;;;;5131257;27;20244;-64
2023/02/17 11:45:24;;;;;;;1.08;1.00;;;18.70;54.70;;;;;;5114401;28;20177;-63
2023/02/17 11:48:03;;;;;;;1.13;1.02;;;18.70;54.70;;;;;;5112753;28;20237;-62
2023/02/17 11:50:33;;;;;;;1.00;1.00;;;18.70;54.70;;;;;;5113662;28;20173;-63
2023/02/17 11:52:59;;;;;;;1.33;1.20;;;18.70;54.60;;;;;;5113017;28;20234;-59
2023/02/17 11:55:54;;;;;;;2.42;1.20;;;18.70;54.70;;;;;;5113289;28;20173;-60
2023/02/17 11:58:42;;;;;;;1.42;1.33;;;18.70;54.60;;;;;;5089768;28;20184;-61
2023/02/17 12:01:26;;;;;;;2.75;1.45;;;18.70;54.60;;;;;;5112483;28;20181;-62
2023/02/17 12:04:09;;;;;;;1.85;1.35;;;18.80;54.70;;;;;;5111282;28;20582;-61
2023/02/17 12:06:47;;;;;;;1.75;1.30;;;18.90;54.60;;;;;;5112020;28;20197;-61
2023/02/17 12:09:28;;;;;;;1.50;1.13;;;19.00;54.50;;;;;;5113422;28;20180;-61
2023/02/17 12:12:04;;;;;;;0.85;0.85;;;19.20;54.10;;;;;;5112094;28;20177;-61
2023/02/17 12:14:52;;;;;;;1.33;1.23;;;19.30;53.80;;;;;;5112469;28;20212;-61
2023/02/17 12:17:54;;;;;;;1.50;1.17;;;19.60;53.60;;;;;;5111439;28;20229;-61
2023/02/17 12:21:02;;;;;;;3.92;1.08;;;19.70;53.30;;;;;;5113576;28;20181;-62
2023/02/17 12:24:21;;;;;;;1.65;1.23;;;19.80;53.10;;;;;;5049827;28;20215;-61
2023/02/17 12:27:03;;;;;;;3.10;1.75;;;19.80;52.90;;;;;;5070354;28;20285;-61
2023/02/17 12:29:34;;;;;;;1.27;1.13;;;19.80;53.70;;;;;;5111369;28;20672;-60
2023/02/17 12:32:27;;;;;;;1.35;1.25;;;19.90;53.00;;;;;;5112621;28;20173;-60
2023/02/17 12:34:55;;;;;;;2.47;1.20;;;20.00;52.90;;;;;;5113075;28;20309;-60
2023/02/17 12:37:27;;;;;;;2.15;1.30;;;19.90;52.80;;;;;;5111722;28;20221;-60
2023/02/17 12:39:55;;;;;;;2.60;1.45;;;19.90;52.80;;;;;;5111655;28;20575;-60
2023/02/17 12:42:34;;;;;;;1.98;1.08;;;19.90;52.80;;;;;;5111868;28;20209;-59
2023/02/17 12:45:03;;;;;;;4.45;1.40;;;19.90;52.90;;;;;;5111356;28;20176;-60
2023/02/17 12:47:50;;;;;;;1.52;1.20;;;19.80;53.00;;;;;;5111648;28;20221;-60
2023/02/17 12:50:39;;;;;;;2.47;1.80;;;19.90;52.90;;;;;;5112509;28;20371;-60
2023/02/17 12:53:30;;;;;;;3.10;0.90;;;19.90;53.00;;;;;;5111184;28;20224;-59
2023/02/17 12:55:57;;;;;;;2.35;1.20;;;19.90;53.00;;;;;;5111217;28;20178;-60
2023/02/17 12:58:24;;;;;;;1.23;1.10;;;19.80;53.10;;;;;;5111646;28;20514;-61
2023/02/17 13:01:08;;;;;;;1.38;1.05;;;19.80;53.20;;;;;;5110842;28;20590;-59
2023/02/17 13:03:34;;;;;;;3.55;1.20;;;19.80;53.20;;;;;;5111341;28;20236;-59
2023/02/17 13:06:04;;;;;;;2.63;1.15;;;19.80;53.30;;;;;;5111939;28;20180;-60